Home   Weather   Cologno Monzese   Past weeks
Flag for Italy

Past Weather in Cologno Monzese, Italy — Yesterday and Last 2 Weeks

Currently: 32 °F. Clear. (Weather station: Milan / Linate, Italy). See more current weather

Past Weather in Cologno Monzese — Graph

°F

Cologno Monzese Temperature Yesterday

Maximum temperature yesterday: 54 °F (at 3:20 pm)
Minimum temperature yesterday: 30 °F (at 7:50 am)
Average temperature yesterday: 43 °F

High & Low Weather Summary for the Past Weeks

 TemperatureHumidityPressure
High54 °F (Jan 17, 3:20 pm)100% (Jan 3, 1:20 am)30.66 "Hg (Jan 3, 1:20 am)
Low21 °F (Jan 13, 6:50 am)37% (Jan 17, 8:20 pm)29.50 "Hg (Jan 5, 2:20 pm)
Average37 °F85%30.12 "Hg
* Reported Jan 3 1:20 am — Jan 18 1:50 am, Cologno Monzese. Weather by CustomWeather, © 2022

Note: Actual official high and low records may vary slightly from our data, if they occured in-between our weather recording intervals... More about our weather records

Cologno Monzese Weather History for the Previous 24 Hours

Scroll right to see more
 ConditionsComfort  
Time TempWeatherWind HumidityBarometerVisibility
1:50 am
Tue, Jan 18
34 °FClear.2 mph81%30.30 "Hg10 mi
1:20 am34 °FClear.2 mph75%30.27 "Hg10 mi
12:50 am37 °FClear.2 mph65%30.27 "Hg10 mi
12:20 am41 °FClear.3 mph53%30.27 "Hg10 mi
11:50 pm
Mon, Jan 17
43 °FClear.2 mph53%30.24 "Hg10 mi
11:20 pm43 °FClear.9 mph53%30.24 "Hg10 mi
10:50 pm45 °FPassing clouds.6 mph49%30.24 "HgN/A
10:20 pm43 °FPassing clouds.5 mph57%30.24 "HgN/A
9:50 pm37 °FPassing clouds.3 mph65%30.24 "HgN/A
9:20 pm43 °FClear.6 mph57%30.24 "Hg10 mi
8:50 pm45 °FPassing clouds.5 mph49%30.21 "HgN/A
8:20 pm50 °FPassing clouds.3 mph37%30.21 "HgN/A
7:50 pm52 °FClear.10 mph38%30.21 "Hg10 mi
7:20 pm52 °FClear.13 mph38%30.21 "Hg10 mi
6:50 pm50 °FClear.10 mph43%30.21 "Hg10 mi
6:20 pm52 °FClear.13 mph44%30.21 "Hg10 mi
5:50 pm52 °FClear.13 mph41%30.21 "Hg10 mi
5:20 pm54 °FClear.14 mph38%30.21 "Hg10 mi
4:50 pm52 °FSunny.6 mph50%30.21 "Hg10 mi
4:20 pm52 °FSunny.5 mph58%30.24 "Hg10 mi
3:50 pm52 °FSunny.8 mph58%30.24 "Hg10 mi
3:20 pm54 °FSunny.7 mph47%30.24 "Hg10 mi
2:50 pm52 °FPassing clouds.7 mph50%30.24 "HgN/A
1:50 pm50 °FPassing clouds.7 mph50%30.27 "HgN/A
1:20 pm50 °FPassing clouds.7 mph54%30.30 "HgN/A
12:50 pm46 °FPassing clouds.5 mph62%30.30 "HgN/A
12:20 pm43 °FSunny.5 mph71%30.33 "Hg10 mi
11:50 am43 °FPassing clouds.6 mph66%30.33 "HgN/A
11:20 am43 °FPassing clouds.5 mph61%30.33 "HgN/A
10:50 am41 °FSunny.7 mph66%30.36 "Hg10 mi
10:20 am37 °FSunny.8 mph75%30.33 "Hg10 mi
9:50 am37 °FPassing clouds.3 mph75%30.33 "HgN/A
9:20 am36 °FSunny.3 mph81%30.33 "Hg10 mi
8:50 am34 °FSunny.2 mph81%30.33 "Hg10 mi
8:20 am32 °FPassing clouds.3 mph87%30.30 "HgN/A
7:50 am30 °FPassing clouds.3 mph86%30.30 "HgN/A
7:20 am32 °FPassing clouds.5 mph87%30.30 "HgN/A
6:50 am32 °FPassing clouds.5 mph87%30.30 "HgN/A
6:20 am32 °FPassing clouds.6 mph87%30.30 "HgN/A
5:50 am34 °FPassing clouds.6 mph81%30.30 "HgN/A
5:20 am34 °FPassing clouds.5 mph87%30.30 "HgN/A
4:50 am36 °FClear.6 mph81%30.27 "Hg10 mi
4:20 am36 °FClear.3 mph81%30.27 "Hg10 mi
3:50 am37 °FPassing clouds.7 mph75%30.27 "HgN/A
3:20 am43 °FClear.8 mph66%30.30 "Hg10 mi
Weather by CustomWeather, © 2022

See weather overview